SAS69P ENBR-ENTC
Flight info
| Callsign | SAS69P |
|---|---|
| Flight time | N/A |
| Altitude | 37000 |
| Route | INTUM DCT BARVI |
| Aircraft | A306/H-SDE3FGHIRWY/LB1 |
Departure
| Time | 2026-04-29 19:20 |
|---|---|
| Airport | Bergen Airport, Flesland (ENBR) |
Arrival
| Time | N/A |
|---|---|
| Airport | Tromsø Airport (ENTC) |
| Time | Latitude | Longitude | Altitude | Speed | Heading |
|---|---|---|---|---|---|
| 2026-04-29 18:51 | 60.28824 | 5.22614 | 179 ft | 0 kts | 34° |
| 2026-04-29 19:10 | 60.28823 | 5.22613 | 179 ft | 2 kts | 34° |
| 2026-04-29 19:11 | 60.28803 | 5.22584 | 179 ft | 4 kts | 34° |
| 2026-04-29 19:11 | 60.28780 | 5.22554 | 177 ft | 4 kts | 34° |
| 2026-04-29 19:11 | 60.28773 | 5.22544 | 176 ft | 0 kts | 34° |
| 2026-04-29 19:13 | 60.28768 | 5.22536 | 175 ft | 2 kts | 33° |
| 2026-04-29 19:13 | 60.28754 | 5.22519 | 174 ft | 2 kts | 31° |
| 2026-04-29 19:14 | 60.28740 | 5.22502 | 173 ft | 2 kts | 28° |
| 2026-04-29 19:14 | 60.28725 | 5.22488 | 172 ft | 2 kts | 22° |
| 2026-04-29 19:14 | 60.28709 | 5.22477 | 172 ft | 2 kts | 11° |
| 2026-04-29 19:14 | 60.28693 | 5.22475 | 172 ft | 2 kts | 347° |
| 2026-04-29 19:15 | 60.28677 | 5.22483 | 172 ft | 2 kts | 352° |
| 2026-04-29 19:15 | 60.28661 | 5.22488 | 171 ft | 2 kts | 350° |
| 2026-04-29 19:15 | 60.28649 | 5.22492 | 171 ft | 1 kts | 351° |
| 2026-04-29 19:16 | 60.28659 | 5.22489 | 171 ft | 7 kts | 351° |
| 2026-04-29 19:17 | 60.28688 | 5.22452 | 171 ft | 7 kts | 292° |
| 2026-04-29 19:17 | 60.28653 | 5.22370 | 171 ft | 7 kts | 185° |
| 2026-04-29 19:17 | 60.28586 | 5.22397 | 170 ft | 15 kts | 168° |
| 2026-04-29 19:17 | 60.28445 | 5.22443 | 169 ft | 25 kts | 170° |
| 2026-04-29 19:18 | 60.28259 | 5.22501 | 161 ft | 28 kts | 171° |
| 2026-04-29 19:18 | 60.28131 | 5.22539 | 157 ft | 22 kts | 172° |
| 2026-04-29 19:18 | 60.28057 | 5.22472 | 158 ft | 10 kts | 247° |
| 2026-04-29 19:18 | 60.28046 | 5.22297 | 156 ft | 13 kts | 280° |
| 2026-04-29 19:19 | 60.28082 | 5.22240 | 157 ft | 4 kts | 348° |
| 2026-04-29 19:19 | 60.28089 | 5.22238 | 156 ft | 0 kts | 350° |
| 2026-04-29 19:19 | 60.28104 | 5.22233 | 156 ft | 13 kts | 350° |
| 2026-04-29 19:20 | 60.28451 | 5.22116 | 168 ft | 89 kts | 349° |
| 2026-04-29 19:20 | 60.29296 | 5.21830 | 162 ft | 156 kts | 349° |
| 2026-04-29 19:20 | 60.30502 | 5.21491 | 705 ft | 185 kts | 352° |
| 2026-04-29 19:20 | 60.31791 | 5.21123 | 1844 ft | 188 kts | 351° |
| 2026-04-29 19:21 | 60.33117 | 5.20667 | 2852 ft | 202 kts | 349° |
| 2026-04-29 19:21 | 60.34560 | 5.20136 | 3745 ft | 218 kts | 349° |
| 2026-04-29 19:21 | 60.36077 | 5.19590 | 4683 ft | 231 kts | 349° |
| 2026-04-29 19:21 | 60.37729 | 5.19010 | 5577 ft | 245 kts | 349° |
| 2026-04-29 19:22 | 60.39462 | 5.18412 | 6412 ft | 258 kts | 349° |
| 2026-04-29 19:22 | 60.41246 | 5.17926 | 7253 ft | 265 kts | 356° |
| 2026-04-29 19:22 | 60.43091 | 5.18356 | 8094 ft | 271 kts | 15° |
| 2026-04-29 19:22 | 60.44832 | 5.19921 | 8936 ft | 277 kts | 25° |
| 2026-04-29 19:23 | 60.46520 | 5.21869 | 9823 ft | 281 kts | 27° |
| 2026-04-29 19:23 | 60.48217 | 5.23920 | 10688 ft | 285 kts | 28° |
| 2026-04-29 19:23 | 60.49923 | 5.26006 | 11512 ft | 288 kts | 28° |
| 2026-04-29 19:23 | 60.51646 | 5.28114 | 12355 ft | 290 kts | 28° |
| 2026-04-29 19:24 | 60.53382 | 5.30248 | 13219 ft | 292 kts | 28° |
| 2026-04-29 19:24 | 60.55124 | 5.32396 | 14131 ft | 294 kts | 28° |
| 2026-04-29 19:24 | 60.56874 | 5.34555 | 14947 ft | 295 kts | 28° |
| 2026-04-29 19:24 | 60.58039 | 5.35995 | 15491 ft | 296 kts | 28° |
| 2026-04-29 19:25 | 60.59804 | 5.38177 | 16329 ft | 296 kts | 28° |
| 2026-04-29 19:25 | 60.61576 | 5.40371 | 17093 ft | 299 kts | 28° |
| 2026-04-29 19:25 | 60.63360 | 5.42582 | 17866 ft | 302 kts | 27° |
| 2026-04-29 19:25 | 60.65158 | 5.44812 | 18664 ft | 303 kts | 27° |
| 2026-04-29 19:26 | 60.66987 | 5.47078 | 18546 ft | 321 kts | 27° |
| 2026-04-29 19:26 | 60.67656 | 5.47900 | 18741 ft | 325 kts | 27° |
| 2026-04-29 19:27 | 60.67935 | 5.48242 | 18828 ft | 326 kts | 27° |
| 2026-04-29 19:27 | 60.68809 | 5.49310 | 19239 ft | 323 kts | 27° |
| 2026-04-29 19:28 | 60.69579 | 5.50247 | 19734 ft | 316 kts | 27° |
| 2026-04-29 19:28 | 60.69828 | 5.50550 | 19904 ft | 313 kts | 27° |
| 2026-04-29 19:28 | 60.70578 | 5.51453 | 20489 ft | 304 kts | 26° |
| 2026-04-29 19:29 | 60.71437 | 5.52449 | 21126 ft | 296 kts | 25° |
| 2026-04-29 19:29 | 60.73248 | 5.54411 | 22012 ft | 296 kts | 23° |
| 2026-04-29 19:29 | 60.75136 | 5.56369 | 22282 ft | 315 kts | 26° |
| 2026-04-29 19:30 | 60.77021 | 5.58882 | 22766 ft | 327 kts | 31° |
| 2026-04-29 19:30 | 60.78902 | 5.61528 | 23514 ft | 327 kts | 31° |
| 2026-04-29 19:30 | 60.80728 | 5.64008 | 24256 ft | 326 kts | 30° |
| 2026-04-29 19:31 | 60.80740 | 5.64023 | 24259 ft | 326 kts | 30° |
| 2026-04-29 19:31 | 60.82647 | 5.66534 | 24913 ft | 326 kts | 29° |
| 2026-04-29 19:32 | 60.84585 | 5.69035 | 25346 ft | 334 kts | 28° |
| 2026-04-29 19:32 | 60.84719 | 5.69207 | 25375 ft | 335 kts | 28° |
| 2026-04-29 19:33 | 60.85292 | 5.69939 | 25420 ft | 340 kts | 28° |
| 2026-04-29 19:33 | 60.87357 | 5.72578 | 25463 ft | 356 kts | 28° |
| 2026-04-29 19:33 | 60.89521 | 5.75321 | 25488 ft | 375 kts | 28° |
| 2026-04-29 19:34 | 60.91801 | 5.78201 | 25489 ft | 394 kts | 28° |
| 2026-04-29 19:34 | 60.94165 | 5.81193 | 25488 ft | 413 kts | 28° |
| 2026-04-29 19:34 | 60.96669 | 5.84317 | 25482 ft | 428 kts | 26° |
| 2026-04-29 19:34 | 60.99337 | 5.87262 | 25482 ft | 442 kts | 24° |
| 2026-04-29 19:35 | 60.99672 | 5.87613 | 25481 ft | 443 kts | 24° |
| 2026-04-29 19:36 | 61.02217 | 5.90199 | 25485 ft | 455 kts | 23° |
| 2026-04-29 19:36 | 61.05098 | 5.93022 | 25742 ft | 459 kts | 22° |
| 2026-04-29 19:36 | 61.07987 | 5.95828 | 26261 ft | 457 kts | 22° |
| 2026-04-29 19:37 | 61.10836 | 5.98606 | 26692 ft | 458 kts | 22° |
| 2026-04-29 19:37 | 61.12779 | 6.00512 | 26967 ft | 458 kts | 22° |
| 2026-04-29 19:37 | 61.16608 | 6.04303 | 27378 ft | 462 kts | 22° |
| 2026-04-29 19:37 | 61.19514 | 6.07202 | 27688 ft | 465 kts | 22° |
| 2026-04-29 19:38 | 61.22430 | 6.10125 | 28040 ft | 467 kts | 22° |
| 2026-04-29 19:38 | 61.25359 | 6.13071 | 28341 ft | 468 kts | 22° |
| 2026-04-29 19:38 | 61.28287 | 6.16025 | 28755 ft | 468 kts | 22° |
| 2026-04-29 19:38 | 61.31211 | 6.18979 | 29158 ft | 467 kts | 22° |
| 2026-04-29 19:39 | 61.34128 | 6.21932 | 29584 ft | 466 kts | 22° |
| 2026-04-29 19:39 | 61.37038 | 6.24881 | 30033 ft | 465 kts | 22° |
| 2026-04-29 19:39 | 61.39943 | 6.27827 | 30478 ft | 464 kts | 22° |
| 2026-04-29 19:39 | 61.42839 | 6.30773 | 30842 ft | 463 kts | 22° |
| 2026-04-29 19:40 | 61.45741 | 6.33733 | 31189 ft | 462 kts | 22° |
| 2026-04-29 19:40 | 61.48632 | 6.36689 | 31534 ft | 461 kts | 22° |
| 2026-04-29 19:40 | 61.51482 | 6.39610 | 31900 ft | 460 kts | 22° |
| 2026-04-29 19:40 | 61.53420 | 6.41600 | 32133 ft | 459 kts | 22° |